This is the latest recevied weather packets stored in our database for station/object W2SRH. If no packets are shown the sender has not sent any weather packets the latest 1 day(s).
| Time | Temp. | Humidity | Pressure | Rain* | Wind** | Luminosity | Snow |
|---|---|---|---|---|---|---|---|
| 1778086145 | 17.78° C | 81% | 999.8 hPa | 1.27 mm | 0 m/s | - | - |
| 1778084945 | 17.22° C | 82% | 1000.7 hPa | 1.27 mm | 0 m/s | - | - |
| 1778081945 | 18.33° C | 72% | 1001.1 hPa | 0 mm | 0.89 m/s, 271° | - | - |
| 1778075945 | 20° C | 60% | 1001 hPa | 0 mm | 0.45 m/s, 205° | - | - |
| 1778073545 | 19.44° C | 62% | 1001.3 hPa | 0 mm | 1.34 m/s, 208° | - | - |
| 1778072945 | 19.44° C | 62% | 1001.3 hPa | 0 mm | 1.34 m/s, 244° | - | - |
| 1778072345 | 19.44° C | 63% | 1001.2 hPa | 0 mm | 0.45 m/s, 268° | - | - |
| 1778070546 | 19.44° C | 64% | 1001 hPa | 0 mm | 0.45 m/s, 156° | - | - |
| 1778069945 | 18.89° C | 65% | 1001.2 hPa | 0 mm | 0.89 m/s, 207° | - | - |
| 1778066345 | 17.78° C | 69% | 1001.4 hPa | 0 mm | 0.45 m/s, 166° | - | - |
| 1778065144 | 17.78° C | 70% | 1001.4 hPa | 0 mm | 0.89 m/s, 197° | - | - |
| 1778063944 | 17.78° C | 71% | 1001.1 hPa | 0 mm | 0.45 m/s, 231° | - | - |
| 1778063345 | 17.22° C | 73% | 1001.2 hPa | 0 mm | 0.45 m/s, 212° | - | - |
| 1778061260 | 17.78° C | 72% | 1001 hPa | 0 mm | 0.45 m/s, 186° | - | - |
| 1778060946 | 17.22° C | 73% | 1001.1 hPa | 0 mm | 0.45 m/s, 158° | - | - |
| 1778059745 | 17.78° C | 72% | 1001 hPa | 0 mm | 0.45 m/s, 186° | - | - |
| 1778057946 | 17.78° C | 71% | 1001 hPa | 0 mm | 0.89 m/s, 206° | - | - |
| 1778054945 | 17.78° C | 71% | 1001.4 hPa | 0 mm | 0.45 m/s, 202° | - | - |
| 1778053583 | 18.33° C | 71% | 1001.4 hPa | 0 mm | 0.45 m/s, 182° | - | - |
| 1778053144 | 17.78° C | 71% | 1001.3 hPa | 0 mm | 0.45 m/s, 158° | - | - |
| 1778052544 | 18.33° C | 71% | 1001.4 hPa | 0 mm | 0.45 m/s, 182° | - | - |
| 1778051655 | 18.89° C | 68% | 1001.5 hPa | 0 mm | 0.45 m/s, 202° | - | - |
| 1778051344 | 18.33° C | 69% | 1001.4 hPa | 0 mm | 0 m/s | - | - |
| 1778049737 | 18.89° C | 67% | 1001.6 hPa | 0 mm | 0.45 m/s, 170° | - | - |
| 1778049545 | 18.89° C | 68% | 1001.5 hPa | 0 mm | 0.45 m/s, 161° | - | - |
* Rain latest hour (hover to see other rain measurements)
** Current wind speed in m/s (hover to see current wind gust speed)